sensor_id;sensor_type;location;lat;lon;timestamp;pressure;altitude;pressure_sealevel;temperature
69415;BMP280;56608;43.530;-5.652;2022-12-24T00:00:18;101658.41;;;14.99
69415;BMP280;56608;43.530;-5.652;2022-12-24T00:01:19;101650.75;;;14.97
69415;BMP280;56608;43.530;-5.652;2022-12-24T00:02:21;101647.16;;;15.00
69415;BMP280;56608;43.530;-5.652;2022-12-24T00:03:23;101641.75;;;15.00
69415;BMP280;56608;43.530;-5.652;2022-12-24T00:04:24;101638.41;;;14.96
69415;BMP280;56608;43.530;-5.652;2022-12-24T00:05:25;101638.00;;;14.98
69415;BMP280;56608;43.530;-5.652;2022-12-24T00:06:27;101639.19;;;14.97
69415;BMP280;56608;43.530;-5.652;2022-12-24T00:07:28;101632.09;;;14.99
69415;BMP280;56608;43.530;-5.652;2022-12-24T00:08:29;101634.81;;;14.99
69415;BMP280;56608;43.530;-5.652;2022-12-24T00:09:31;101639.03;;;15.00
69415;BMP280;56608;43.530;-5.652;2022-12-24T00:10:32;101645.97;;;15.01
69415;BMP280;56608;43.530;-5.652;2022-12-24T00:11:33;101637.16;;;14.88
69415;BMP280;56608;43.530;-5.652;2022-12-24T00:12:35;101633.25;;;14.89
69415;BMP280;56608;43.530;-5.652;2022-12-24T00:13:37;101636.28;;;14.91
69415;BMP280;56608;43.530;-5.652;2022-12-24T00:14:38;101627.56;;;14.87
69415;BMP280;56608;43.530;-5.652;2022-12-24T00:15:40;101637.03;;;14.92
69415;BMP280;56608;43.530;-5.652;2022-12-24T00:16:41;101635.97;;;14.89
69415;BMP280;56608;43.530;-5.652;2022-12-24T00:17:42;101632.97;;;14.87
69415;BMP280;56608;43.530;-5.652;2022-12-24T00:18:44;101624.53;;;14.85
69415;BMP280;56608;43.530;-5.652;2022-12-24T00:19:45;101617.91;;;14.86
69415;BMP280;56608;43.530;-5.652;2022-12-24T00:20:47;101614.88;;;14.84
69415;BMP280;56608;43.530;-5.652;2022-12-24T00:21:47;101620.63;;;14.86
69415;BMP280;56608;43.530;-5.652;2022-12-24T00:22:49;101612.72;;;14.79
69415;BMP280;56608;43.530;-5.652;2022-12-24T00:23:51;101614.69;;;14.78
69415;BMP280;56608;43.530;-5.652;2022-12-24T00:24:52;101621.19;;;14.81
69415;BMP280;56608;43.530;-5.652;2022-12-24T00:25:54;101611.22;;;14.78
69415;BMP280;56608;43.530;-5.652;2022-12-24T00:26:56;101614.06;;;14.74
69415;BMP280;56608;43.530;-5.652;2022-12-24T00:27:57;101612.13;;;14.75
69415;BMP280;56608;43.530;-5.652;2022-12-24T00:28:59;101617.81;;;14.77
69415;BMP280;56608;43.530;-5.652;2022-12-24T00:30:01;101626.69;;;14.77
69415;BMP280;56608;43.530;-5.652;2022-12-24T00:31:15;101619.66;;;14.80
69415;BMP280;56608;43.530;-5.652;2022-12-24T00:32:17;101614.25;;;14.80
69415;BMP280;56608;43.530;-5.652;2022-12-24T00:33:18;101616.63;;;14.78
69415;BMP280;56608;43.530;-5.652;2022-12-24T00:34:22;101611.66;;;14.76
69415;BMP280;56608;43.530;-5.652;2022-12-24T00:35:23;101598.41;;;14.69
69415;BMP280;56608;43.530;-5.652;2022-12-24T00:36:24;101612.13;;;14.75
69415;BMP280;56608;43.530;-5.652;2022-12-24T00:37:26;101606.37;;;14.73
69415;BMP280;56608;43.530;-5.652;2022-12-24T00:38:26;101612.22;;;14.71
69415;BMP280;56608;43.530;-5.652;2022-12-24T00:39:28;101613.41;;;14.70
69415;BMP280;56608;43.530;-5.652;2022-12-24T00:40:30;101611.59;;;14.67
69415;BMP280;56608;43.530;-5.652;2022-12-24T00:41:32;101603.50;;;14.67
69415;BMP280;56608;43.530;-5.652;2022-12-24T00:42:33;101611.03;;;14.72
69415;BMP280;56608;43.530;-5.652;2022-12-24T00:43:35;101605.94;;;14.74
69415;BMP280;56608;43.530;-5.652;2022-12-24T00:44:35;101610.59;;;14.74
69415;BMP280;56608;43.530;-5.652;2022-12-24T00:45:37;101602.47;;;14.74
69415;BMP280;56608;43.530;-5.652;2022-12-24T00:46:39;101602.16;;;14.72
69415;BMP280;56608;43.530;-5.652;2022-12-24T00:47:41;101599.87;;;14.70
69415;BMP280;56608;43.530;-5.652;2022-12-24T00:48:42;101599.47;;;14.72
69415;BMP280;56608;43.530;-5.652;2022-12-24T00:49:44;101589.81;;;14.71
69415;BMP280;56608;43.530;-5.652;2022-12-24T00:50:45;101589.06;;;14.70
69415;BMP280;56608;43.530;-5.652;2022-12-24T00:51:47;101583.97;;;14.72
69415;BMP280;56608;43.530;-5.652;2022-12-24T00:52:47;101580.53;;;14.72
69415;BMP280;56608;43.530;-5.652;2022-12-24T00:53:50;101584.88;;;14.69
69415;BMP280;56608;43.530;-5.652;2022-12-24T00:54:51;101585.63;;;14.70
69415;BMP280;56608;43.530;-5.652;2022-12-24T00:55:53;101584.66;;;14.64
69415;BMP280;56608;43.530;-5.652;2022-12-24T00:56:54;101579.25;;;14.64
69415;BMP280;56608;43.530;-5.652;2022-12-24T00:57:55;101578.06;;;14.65
69415;BMP280;56608;43.530;-5.652;2022-12-24T00:58:57;101576.75;;;14.69
69415;BMP280;56608;43.530;-5.652;2022-12-24T00:59:57;101578.53;;;14.63
69415;BMP280;56608;43.530;-5.652;2022-12-24T01:00:59;101576.25;;;14.62
69415;BMP280;56608;43.530;-5.652;2022-12-24T01:02:01;101593.34;;;14.59
69415;BMP280;56608;43.530;-5.652;2022-12-24T01:03:02;101583.19;;;14.63
69415;BMP280;56608;43.530;-5.652;2022-12-24T01:04:03;101576.25;;;14.62
69415;BMP280;56608;43.530;-5.652;2022-12-24T01:05:23;101576.69;;;14.60
69415;BMP280;56608;43.530;-5.652;2022-12-24T01:06:24;101574.75;;;14.61
69415;BMP280;56608;43.530;-5.652;2022-12-24T01:07:25;101570.41;;;14.63
69415;BMP280;56608;43.530;-5.652;2022-12-24T01:08:27;101554.63;;;14.62
69415;BMP280;56608;43.530;-5.652;2022-12-24T01:09:28;101543.81;;;14.62
69415;BMP280;56608;43.530;-5.652;2022-12-24T01:10:30;101543.38;;;14.63
69415;BMP280;56608;43.530;-5.652;2022-12-24T01:11:31;101537.63;;;14.61
69415;BMP280;56608;43.530;-5.652;2022-12-24T01:12:33;101538.41;;;14.62
69415;BMP280;56608;43.530;-5.652;2022-12-24T01:13:35;101537.97;;;14.63
69415;BMP280;56608;43.530;-5.652;2022-12-24T01:14:36;101536.75;;;14.64
69415;BMP280;56608;43.530;-5.652;2022-12-24T01:15:38;101524.56;;;14.60
69415;BMP280;56608;43.530;-5.652;2022-12-24T01:16:39;101539.91;;;14.63
69415;BMP280;56608;43.530;-5.652;2022-12-24T01:17:41;101533.41;;;14.60
69415;BMP280;56608;43.530;-5.652;2022-12-24T01:18:42;101534.50;;;14.63
69415;BMP280;56608;43.530;-5.652;2022-12-24T01:19:43;101534.69;;;14.68
69415;BMP280;56608;43.530;-5.652;2022-12-24T01:20:45;101533.59;;;14.66
69415;BMP280;56608;43.530;-5.652;2022-12-24T01:21:45;101535.13;;;14.67
69415;BMP280;56608;43.530;-5.652;2022-12-24T01:22:47;101538.16;;;14.69
69415;BMP280;56608;43.530;-5.652;2022-12-24T01:23:49;101535.13;;;14.67
69415;BMP280;56608;43.530;-5.652;2022-12-24T01:24:50;101543.56;;;14.69
69415;BMP280;56608;43.530;-5.652;2022-12-24T01:25:52;101532.41;;;14.67
69415;BMP280;56608;43.530;-5.652;2022-12-24T01:26:52;101537.38;;;14.68
69415;BMP280;56608;43.530;-5.652;2022-12-24T01:27:54;101542.91;;;14.65
69415;BMP280;56608;43.530;-5.652;2022-12-24T01:28:56;101540.53;;;14.67
69415;BMP280;56608;43.530;-5.652;2022-12-24T01:29:57;101536.44;;;14.62
69415;BMP280;56608;43.530;-5.652;2022-12-24T01:30:59;101535.13;;;14.67
69415;BMP280;56608;43.530;-5.652;2022-12-24T01:31:59;101536.50;;;14.71
69415;BMP280;56608;43.530;-5.652;2022-12-24T01:33:01;101528.37;;;14.71
69415;BMP280;56608;43.530;-5.652;2022-12-24T01:34:03;101533.50;;;14.69
69415;BMP280;56608;43.530;-5.652;2022-12-24T01:35:04;101525.81;;;14.68
69415;BMP280;56608;43.530;-5.652;2022-12-24T01:36:05;101526.44;;;14.72
69415;BMP280;56608;43.530;-5.652;2022-12-24T01:37:07;101520.72;;;14.70
69415;BMP280;56608;43.530;-5.652;2022-12-24T01:38:09;101518.47;;;14.68
69415;BMP280;56608;43.530;-5.652;2022-12-24T01:39:11;101526.56;;;14.68
69415;BMP280;56608;43.530;-5.652;2022-12-24T01:40:15;101521.28;;;14.65
69415;BMP280;56608;43.530;-5.652;2022-12-24T01:41:36;101525.81;;;14.68
69415;BMP280;56608;43.530;-5.652;2022-12-24T01:42:56;101523.09;;;14.68
69415;BMP280;56608;43.530;-5.652;2022-12-24T01:44:22;101528.84;;;14.70
69415;BMP280;56608;43.530;-5.652;2022-12-24T01:46:52;101527.63;;;14.71
69415;BMP280;56608;43.530;-5.652;2022-12-24T01:47:54;101523.84;;;14.68
69415;BMP280;56608;43.530;-5.652;2022-12-24T01:48:59;101516.62;;;14.65
69415;BMP280;56608;43.530;-5.652;2022-12-24T01:50:12;101522.22;;;14.71
69415;BMP280;56608;43.530;-5.652;2022-12-24T01:51:33;101518.13;;;14.66
69415;BMP280;56608;43.530;-5.652;2022-12-24T01:52:38;101520.22;;;14.62
69415;BMP280;56608;43.530;-5.652;2022-12-24T01:53:38;101516.62;;;14.65
69415;BMP280;56608;43.530;-5.652;2022-12-24T01:54:52;101512.53;;;14.61
69415;BMP280;56608;43.530;-5.652;2022-12-24T01:55:53;101521.28;;;14.65
69415;BMP280;56608;43.530;-5.652;2022-12-24T01:57:20;101514.34;;;14.64
69415;BMP280;56608;43.530;-5.652;2022-12-24T01:58:24;101502.91;;;14.60
69415;BMP280;56608;43.530;-5.652;2022-12-24T01:59:26;101509.69;;;14.64
69415;BMP280;56608;43.530;-5.652;2022-12-24T02:00:28;101507.75;;;14.65
69415;BMP280;56608;43.530;-5.652;2022-12-24T02:01:29;101507.31;;;14.66
69415;BMP280;56608;43.530;-5.652;2022-12-24T02:02:31;101514.66;;;14.66
69415;BMP280;56608;43.530;-5.652;2022-12-24T02:03:33;101507.75;;;14.65
69415;BMP280;56608;43.530;-5.652;2022-12-24T02:04:53;101512.88;;;14.63
69415;BMP280;56608;43.530;-5.652;2022-12-24T02:05:57;101511.34;;;14.62
69415;BMP280;56608;43.530;-5.652;2022-12-24T02:06:59;101496.00;;;14.59
69415;BMP280;56608;43.530;-5.652;2022-12-24T02:08:02;101515.09;;;14.64
69415;BMP280;56608;43.530;-5.652;2022-12-24T02:09:04;101514.34;;;14.64
69415;BMP280;56608;43.530;-5.652;2022-12-24T02:10:10;101518.53;;;14.56
69415;BMP280;56608;43.530;-5.652;2022-12-24T02:11:17;101512.22;;;14.59
69415;BMP280;56608;43.530;-5.652;2022-12-24T02:12:18;101520.97;;;14.63
69415;BMP280;56608;43.530;-5.652;2022-12-24T02:13:20;101520.22;;;14.62
69415;BMP280;56608;43.530;-5.652;2022-12-24T02:14:22;101517.81;;;14.64
69415;BMP280;56608;43.530;-5.652;2022-12-24T02:15:23;101515.56;;;14.63
69415;BMP280;56608;43.530;-5.652;2022-12-24T02:24:26;101517.63;;;14.59
69415;BMP280;56608;43.530;-5.652;2022-12-24T02:26:05;101511.47;;;14.58
69415;BMP280;56608;43.530;-5.652;2022-12-24T02:27:07;101507.47;;;14.63
69415;BMP280;56608;43.530;-5.652;2022-12-24T02:32:01;101500.00;;;14.54
69415;BMP280;56608;43.530;-5.652;2022-12-24T02:35:14;101501.87;;;14.57
69415;BMP280;56608;43.530;-5.652;2022-12-24T02:36:23;101499.38;;;14.50
69415;BMP280;56608;43.530;-5.652;2022-12-24T02:37:30;101497.13;;;14.48
69415;BMP280;56608;43.530;-5.652;2022-12-24T02:38:38;101506.41;;;14.47
69415;BMP280;56608;43.530;-5.652;2022-12-24T02:40:51;101486.91;;;14.53
69415;BMP280;56608;43.530;-5.652;2022-12-24T02:41:55;101486.41;;;14.58
69415;BMP280;56608;43.530;-5.652;2022-12-24T02:43:11;101494.81;;;14.60
69415;BMP280;56608;43.530;-5.652;2022-12-24T02:44:16;101484.13;;;14.56
69415;BMP280;56608;43.530;-5.652;2022-12-24T02:45:28;101486.41;;;14.58
69415;BMP280;56608;43.530;-5.652;2022-12-24T02:46:30;101485.13;;;14.50
69415;BMP280;56608;43.530;-5.652;2022-12-24T02:47:33;101482.72;;;14.52
69415;BMP280;56608;43.530;-5.652;2022-12-24T02:48:36;101492.31;;;14.53
69415;BMP280;56608;43.530;-5.652;2022-12-24T02:49:42;101494.59;;;14.54
69415;BMP280;56608;43.530;-5.652;2022-12-24T02:51:06;101495.25;;;14.58
69415;BMP280;56608;43.530;-5.652;2022-12-24T02:52:27;101485.66;;;14.57
69415;BMP280;56608;43.530;-5.652;2022-12-24T02:53:29;101478.81;;;14.53
69415;BMP280;56608;43.530;-5.652;2022-12-24T02:54:31;101485.44;;;14.52
69415;BMP280;56608;43.530;-5.652;2022-12-24T02:55:43;101494.75;;;14.51
69415;BMP280;56608;43.530;-5.652;2022-12-24T02:58:20;101492.47;;;14.49
69415;BMP280;56608;43.530;-5.652;2022-12-24T02:59:50;101487.37;;;14.51
69415;BMP280;56608;43.530;-5.652;2022-12-24T03:01:23;101488.88;;;14.52
69415;BMP280;56608;43.530;-5.652;2022-12-24T03:03:37;101466.50;;;14.52
69415;BMP280;56608;43.530;-5.652;2022-12-24T03:06:40;101460.78;;;14.50
69415;BMP280;56608;43.530;-5.652;2022-12-24T03:08:04;101462.41;;;14.47
69415;BMP280;56608;43.530;-5.652;2022-12-24T03:09:19;101463.16;;;14.47
69415;BMP280;56608;43.530;-5.652;2022-12-24T03:10:46;101457.75;;;14.47
69415;BMP280;56608;43.530;-5.652;2022-12-24T03:12:00;101452.34;;;14.47
69415;BMP280;56608;43.530;-5.652;2022-12-24T03:13:07;101450.84;;;14.46
69415;BMP280;56608;43.530;-5.652;2022-12-24T03:14:10;101441.78;;;14.40
69415;BMP280;56608;43.530;-5.652;2022-12-24T03:15:14;101437.91;;;14.41
69415;BMP280;56608;43.530;-5.652;2022-12-24T03:16:21;101440.59;;;14.41
69415;BMP280;56608;43.530;-5.652;2022-12-24T03:17:23;101443.00;;;14.39
69415;BMP280;56608;43.530;-5.652;2022-12-24T03:18:26;101444.19;;;14.38
69415;BMP280;56608;43.530;-5.652;2022-12-24T03:19:28;101422.69;;;14.35
69415;BMP280;56608;43.530;-5.652;2022-12-24T03:20:45;101432.31;;;14.36
69415;BMP280;56608;43.530;-5.652;2022-12-24T03:21:47;101423.06;;;14.24
69415;BMP280;56608;43.530;-5.652;2022-12-24T03:22:49;101433.31;;;14.29
69415;BMP280;56608;43.530;-5.652;2022-12-24T03:23:49;101422.50;;;14.29
69415;BMP280;56608;43.530;-5.652;2022-12-24T03:24:51;101426.63;;;14.34
69415;BMP280;56608;43.530;-5.652;2022-12-24T03:25:53;101426.28;;;14.32
69415;BMP280;56608;43.530;-5.652;2022-12-24T03:26:55;101427.47;;;14.31
69415;BMP280;56608;43.530;-5.652;2022-12-24T03:27:57;101425.31;;;14.26
69415;BMP280;56608;43.530;-5.652;2022-12-24T03:28:59;101425.22;;;14.29
69415;BMP280;56608;43.530;-5.652;2022-12-24T03:30:02;101419.16;;;14.25
69415;BMP280;56608;43.530;-5.652;2022-12-24T03:31:05;101419.91;;;14.26
69415;BMP280;56608;43.530;-5.652;2022-12-24T03:32:07;101419.16;;;14.25
69415;BMP280;56608;43.530;-5.652;2022-12-24T03:33:09;101416.91;;;14.24
69415;BMP280;56608;43.530;-5.652;2022-12-24T03:34:12;101405.31;;;14.23
69415;BMP280;56608;43.530;-5.652;2022-12-24T03:35:14;101407.16;;;14.26
69415;BMP280;56608;43.530;-5.652;2022-12-24T03:36:16;101406.97;;;14.21
69415;BMP280;56608;43.530;-5.652;2022-12-24T03:37:17;101416.13;;;14.23
69415;BMP280;56608;43.530;-5.652;2022-12-24T03:38:18;101408.59;;;14.18
69415;BMP280;56608;43.530;-5.652;2022-12-24T03:39:20;101420.78;;;14.23
69415;BMP280;56608;43.530;-5.652;2022-12-24T03:40:21;101413.75;;;14.25
69415;BMP280;56608;43.530;-5.652;2022-12-24T03:41:23;101409.53;;;14.24
69415;BMP280;56608;43.530;-5.652;2022-12-24T03:42:24;101405.31;;;14.23
69415;BMP280;56608;43.530;-5.652;2022-12-24T03:43:26;101405.31;;;14.23
69415;BMP280;56608;43.530;-5.652;2022-12-24T03:44:27;101396.78;;;14.25
69415;BMP280;56608;43.530;-5.652;2022-12-24T03:45:29;101393.31;;;14.24
69415;BMP280;56608;43.530;-5.652;2022-12-24T03:46:30;101398.41;;;14.22
69415;BMP280;56608;43.530;-5.652;2022-12-24T03:47:31;101404.56;;;14.23
69415;BMP280;56608;43.530;-5.652;2022-12-24T03:48:33;101398.72;;;14.24
69415;BMP280;56608;43.530;-5.652;2022-12-24T03:49:35;101398.31;;;14.26
69415;BMP280;56608;43.530;-5.652;2022-12-24T03:50:37;101391.38;;;14.25
69415;BMP280;56608;43.530;-5.652;2022-12-24T03:51:38;101400.25;;;14.25
69415;BMP280;56608;43.530;-5.652;2022-12-24T03:52:39;101411.38;;;14.27
69415;BMP280;56608;43.530;-5.652;2022-12-24T03:53:41;101403.81;;;14.22
69415;BMP280;56608;43.530;-5.652;2022-12-24T03:54:42;101408.69;;;14.27
69415;BMP280;56608;43.530;-5.652;2022-12-24T03:55:43;101409.00;;;14.29
69415;BMP280;56608;43.530;-5.652;2022-12-24T03:56:45;101401.66;;;14.30
69415;BMP280;56608;43.530;-5.652;2022-12-24T03:57:46;101401.66;;;14.30
69415;BMP280;56608;43.530;-5.652;2022-12-24T03:58:47;101409.75;;;14.30
69415;BMP280;56608;43.530;-5.652;2022-12-24T03:59:49;101399.81;;;14.27
69415;BMP280;56608;43.530;-5.652;2022-12-24T04:00:52;101406.28;;;14.29
69415;BMP280;56608;43.530;-5.652;2022-12-24T04:01:53;101398.19;;;14.29
69415;BMP280;56608;43.530;-5.652;2022-12-24T04:02:55;101409.63;;;14.33
69415;BMP280;56608;43.530;-5.652;2022-12-24T04:03:55;101401.06;;;14.35
69415;BMP280;56608;43.530;-5.652;2022-12-24T04:04:57;101412.34;;;14.33
69415;BMP280;56608;43.530;-5.652;2022-12-24T04:06:09;101407.38;;;14.32
69415;BMP280;56608;43.530;-5.652;2022-12-24T04:07:11;101404.22;;;14.33
69415;BMP280;56608;43.530;-5.652;2022-12-24T04:08:12;101409.19;;;14.35
69415;BMP280;56608;43.530;-5.652;2022-12-24T04:09:13;101405.59;;;14.38
69415;BMP280;56608;43.530;-5.652;2022-12-24T04:10:15;101409.81;;;14.39
69415;BMP280;56608;43.530;-5.652;2022-12-24T04:11:17;101398.81;;;14.33
69415;BMP280;56608;43.530;-5.652;2022-12-24T04:12:19;101394.19;;;14.34
69415;BMP280;56608;43.530;-5.652;2022-12-24T04:13:20;101400.94;;;14.38
69415;BMP280;56608;43.530;-5.652;2022-12-24T04:14:21;101396.41;;;14.35
69415;BMP280;56608;43.530;-5.652;2022-12-24T04:15:23;101395.53;;;14.38
69415;BMP280;56608;43.530;-5.652;2022-12-24T04:16:24;101395.22;;;14.36
69415;BMP280;56608;43.530;-5.652;2022-12-24T04:17:26;101390.13;;;14.38
69415;BMP280;56608;43.530;-5.652;2022-12-24T04:18:27;101381.59;;;14.40
69415;BMP280;56608;43.530;-5.652;2022-12-24T04:19:28;101377.22;;;14.42
69415;BMP280;56608;43.530;-5.652;2022-12-24T04:20:30;101371.50;;;14.40
69415;BMP280;56608;43.530;-5.652;2022-12-24T04:21:31;101376.19;;;14.40
69415;BMP280;56608;43.530;-5.652;2022-12-24T04:22:33;101376.31;;;14.36
69415;BMP280;56608;43.530;-5.652;2022-12-24T04:23:36;101369.37;;;14.35
69415;BMP280;56608;43.530;-5.652;2022-12-24T04:24:38;101369.09;;;14.33
69415;BMP280;56608;43.530;-5.652;2022-12-24T04:25:39;101360.09;;;14.36
69415;BMP280;56608;43.530;-5.652;2022-12-24T04:26:41;101347.75;;;14.35
69415;BMP280;56608;43.530;-5.652;2022-12-24T04:27:41;101350.03;;;14.37
69415;BMP280;56608;43.530;-5.652;2022-12-24T04:28:43;101348.66;;;14.32
69415;BMP280;56608;43.530;-5.652;2022-12-24T04:29:44;101355.25;;;14.31
69415;BMP280;56608;43.530;-5.652;2022-12-24T04:30:46;101342.59;;;14.28
69415;BMP280;56608;43.530;-5.652;2022-12-24T04:31:47;101356.88;;;14.29
69415;BMP280;56608;43.530;-5.652;2022-12-24T04:32:49;101354.94;;;14.29
69415;BMP280;56608;43.530;-5.652;2022-12-24T04:33:51;101351.03;;;14.30
69415;BMP280;56608;43.530;-5.652;2022-12-24T04:34:53;101352.56;;;14.31
69415;BMP280;56608;43.530;-5.652;2022-12-24T04:35:58;101344.88;;;14.30
69415;BMP280;56608;43.530;-5.652;2022-12-24T04:37:00;101346.84;;;14.29
69415;BMP280;56608;43.530;-5.652;2022-12-24T04:38:01;101347.91;;;14.32
69415;BMP280;56608;43.530;-5.652;2022-12-24T04:39:03;101345.97;;;14.32
69415;BMP280;56608;43.530;-5.652;2022-12-24T04:40:04;101343.25;;;14.32
69415;BMP280;56608;43.530;-5.652;2022-12-24T04:41:09;101340.34;;;14.27
69415;BMP280;56608;43.530;-5.652;2022-12-24T04:42:10;101332.69;;;14.25
69415;BMP280;56608;43.530;-5.652;2022-12-24T04:43:12;101337.19;;;14.28
69415;BMP280;56608;43.530;-5.652;2022-12-24T04:44:12;101330.62;;;14.29
69415;BMP280;56608;43.530;-5.652;2022-12-24T04:45:15;101334.63;;;14.25
69415;BMP280;56608;43.530;-5.652;2022-12-24T04:46:26;101323.50;;;14.23
69415;BMP280;56608;43.530;-5.652;2022-12-24T04:47:27;101320.03;;;14.22
69415;BMP280;56608;43.530;-5.652;2022-12-24T04:48:29;101322.44;;;14.20
69415;BMP280;56608;43.530;-5.652;2022-12-24T04:49:30;101322.44;;;14.20
69415;BMP280;56608;43.530;-5.652;2022-12-24T04:50:31;101317.06;;;14.20
69415;BMP280;56608;43.530;-5.652;2022-12-24T04:51:32;101322.13;;;14.18
69415;BMP280;56608;43.530;-5.652;2022-12-24T04:52:34;101324.53;;;14.16
69415;BMP280;56608;43.530;-5.652;2022-12-24T04:53:36;101327.53;;;14.18
69415;BMP280;56608;43.530;-5.652;2022-12-24T04:54:38;101319.13;;;14.16
69415;BMP280;56608;43.530;-5.652;2022-12-24T04:55:45;101326.94;;;14.14
69415;BMP280;56608;43.530;-5.652;2022-12-24T04:56:46;101331.44;;;14.17
69415;BMP280;56608;43.530;-5.652;2022-12-24T04:57:48;101335.22;;;14.20
69415;BMP280;56608;43.530;-5.652;2022-12-24T04:58:49;101328.44;;;14.15
69415;BMP280;56608;43.530;-5.652;2022-12-24T04:59:51;101321.69;;;14.20
69415;BMP280;56608;43.530;-5.652;2022-12-24T05:00:52;101326.66;;;14.21
69415;BMP280;56608;43.530;-5.652;2022-12-24T05:01:54;101327.84;;;14.20
69415;BMP280;56608;43.530;-5.652;2022-12-24T05:02:55;101312.41;;;14.21
69415;BMP280;56608;43.530;-5.652;2022-12-24T05:03:57;101323.50;;;14.23
69415;BMP280;56608;43.530;-5.652;2022-12-24T05:04:59;101319.59;;;14.24
69415;BMP280;56608;43.530;-5.652;2022-12-24T05:06:06;101324.13;;;14.27
69415;BMP280;56608;43.530;-5.652;2022-12-24T05:07:07;101317.22;;;14.26
69415;BMP280;56608;43.530;-5.652;2022-12-24T05:08:08;101325.22;;;14.29
69415;BMP280;56608;43.530;-5.652;2022-12-24T05:09:09;101314.09;;;14.27
69415;BMP280;56608;43.530;-5.652;2022-12-24T05:10:11;101328.22;;;14.31
69415;BMP280;56608;43.530;-5.652;2022-12-24T05:11:13;101324.34;;;14.32
69415;BMP280;56608;43.530;-5.652;2022-12-24T05:12:15;101333.62;;;14.31
69415;BMP280;56608;43.530;-5.652;2022-12-24T05:13:16;101331.38;;;14.30
69415;BMP280;56608;43.530;-5.652;2022-12-24T05:14:18;101327.59;;;14.27
69415;BMP280;56608;43.530;-5.652;2022-12-24T05:15:18;101324.34;;;14.32
69415;BMP280;56608;43.530;-5.652;2022-12-24T05:16:21;101325.53;;;14.31
69415;BMP280;56608;43.530;-5.652;2022-12-24T05:17:23;101327.03;;;14.32
69415;BMP280;56608;43.530;-5.652;2022-12-24T05:18:24;101311.69;;;14.29
69415;BMP280;56608;43.530;-5.652;2022-12-24T05:19:26;101320.72;;;14.35
69415;BMP280;56608;43.530;-5.652;2022-12-24T05:20:27;101317.75;;;14.33
69415;BMP280;56608;43.530;-5.652;2022-12-24T05:21:29;101317.97;;;14.26
69415;BMP280;56608;43.530;-5.652;2022-12-24T05:22:29;101320.97;;;14.28
69415;BMP280;56608;43.530;-5.652;2022-12-24T05:23:50;101319.38;;;14.31
69415;BMP280;56608;43.530;-5.652;2022-12-24T05:25:09;101312.44;;;14.30
69415;BMP280;56608;43.530;-5.652;2022-12-24T05:26:34;101319.38;;;14.31
69415;BMP280;56608;43.530;-5.652;2022-12-24T05:27:36;101312.25;;;14.24
69415;BMP280;56608;43.530;-5.652;2022-12-24T05:28:37;101312.56;;;14.26
69415;BMP280;56608;43.530;-5.652;2022-12-24T05:29:38;101308.94;;;14.20
69415;BMP280;56608;43.530;-5.652;2022-12-24T05:30:40;101312.69;;;14.23
69415;BMP280;56608;43.530;-5.652;2022-12-24T05:31:42;101296.34;;;14.26
69415;BMP280;56608;43.530;-5.652;2022-12-24T05:32:45;101295.59;;;14.26
69415;BMP280;56608;43.530;-5.652;2022-12-24T05:33:46;101297.87;;;14.27
69415;BMP280;56608;43.530;-5.652;2022-12-24T05:34:48;101297.87;;;14.27
69415;BMP280;56608;43.530;-5.652;2022-12-24T05:35:50;101300.88;;;14.29
69415;BMP280;56608;43.530;-5.652;2022-12-24T05:36:52;101293.03;;;14.22
69415;BMP280;56608;43.530;-5.652;2022-12-24T05:37:56;101294.41;;;14.27
69415;BMP280;56608;43.530;-5.652;2022-12-24T05:38:58;101291.81;;;14.23
69415;BMP280;56608;43.530;-5.652;2022-12-24T05:39:59;101288.84;;;14.21
69415;BMP280;56608;43.530;-5.652;2022-12-24T05:41:01;101287.94;;;14.24
69415;BMP280;56608;43.530;-5.652;2022-12-24T05:42:02;101290.94;;;14.26
69415;BMP280;56608;43.530;-5.652;2022-12-24T05:43:04;101281.34;;;14.25
69415;BMP280;56608;43.530;-5.652;2022-12-24T05:44:05;101279.81;;;14.24
69415;BMP280;56608;43.530;-5.652;2022-12-24T05:45:07;101285.53;;;14.26
69415;BMP280;56608;43.530;-5.652;2022-12-24T05:46:16;101279.81;;;14.24
69415;BMP280;56608;43.530;-5.652;2022-12-24T05:47:18;101282.22;;;14.22
69415;BMP280;56608;43.530;-5.652;2022-12-24T05:48:20;101281.91;;;14.20
69415;BMP280;56608;43.530;-5.652;2022-12-24T05:49:21;101271.13;;;14.20
69415;BMP280;56608;43.530;-5.652;2022-12-24T05:50:22;101268.09;;;14.18
69415;BMP280;56608;43.530;-5.652;2022-12-24T05:51:23;101271.13;;;14.20
69415;BMP280;56608;43.530;-5.652;2022-12-24T05:52:25;101274.84;;;14.23
69415;BMP280;56608;43.530;-5.652;2022-12-24T05:53:26;101271.28;;;14.26
69415;BMP280;56608;43.530;-5.652;2022-12-24T05:54:27;101269.28;;;14.17
69415;BMP280;56608;43.530;-5.652;2022-12-24T05:55:29;101271.41;;;14.22
69415;BMP280;56608;43.530;-5.652;2022-12-24T05:56:31;101272.62;;;14.21
69415;BMP280;56608;43.530;-5.652;2022-12-24T05:57:31;101270.22;;;14.23
69415;BMP280;56608;43.530;-5.652;2022-12-24T05:58:33;101259.88;;;14.22
69415;BMP280;56608;43.530;-5.652;2022-12-24T05:59:34;101252.47;;;14.22
69415;BMP280;56608;43.530;-5.652;2022-12-24T06:00:36;101251.56;;;14.16
69415;BMP280;56608;43.530;-5.652;2022-12-24T06:01:37;101245.22;;;14.10
69415;BMP280;56608;43.530;-5.652;2022-12-24T06:02:39;101231.00;;;14.10
69415;BMP280;56608;43.530;-5.652;2022-12-24T06:03:41;101233.56;;;14.13
69415;BMP280;56608;43.530;-5.652;2022-12-24T06:04:42;101234.31;;;14.14
69415;BMP280;56608;43.530;-5.652;2022-12-24T06:05:43;101232.19;;;14.08
69415;BMP280;56608;43.530;-5.652;2022-12-24T06:06:45;101239.53;;;14.08
69415;BMP280;56608;43.530;-5.652;2022-12-24T06:07:46;101226.78;;;14.08
69415;BMP280;56608;43.530;-5.652;2022-12-24T06:08:49;101229.94;;;14.07
69415;BMP280;56608;43.530;-5.652;2022-12-24T06:09:51;101235.19;;;14.11
69415;BMP280;56608;43.530;-5.652;2022-12-24T06:11:00;101232.44;;;14.01
69415;BMP280;56608;43.530;-5.652;2022-12-24T06:12:02;101219.50;;;13.96
69415;BMP280;56608;43.530;-5.652;2022-12-24T06:13:03;101221.16;;;13.94
69415;BMP280;56608;43.530;-5.652;2022-12-24T06:14:04;101225.66;;;13.97
69415;BMP280;56608;43.530;-5.652;2022-12-24T06:15:06;101220.28;;;13.97
69415;BMP280;56608;43.530;-5.652;2022-12-24T06:16:12;101213.34;;;13.96